Minot Air Force Base
KMIB : now visible

Airfield :











YOU CAN JOIN US ON...

 
LOGIN :

Register | Disclaimer

   EN    FR    IT 

 









Legend :    VFR   Marginal VFR   IFR   Intensive IFR   Very Intensive IFR
Visi :
Ceiling :
>= 8 km
>= 3000ft
5 to 8 km
1000 to 3000 ft
1500m to 5 km
500 to 1000 ft
800 to 1500m
200 to 500 ft
< 800m
< 200 ft
Symbols :   Thunderstorms  Fog  Heavy snow  Heavy precipitations  Wind > 20 kt







- Airport Elevation : 1667 ft


KMIB - Minot Air Force Base

CURRENT METAR :
  • 202023Z AUTO 06015G18KT 10SM -RA BKN038 BKN100 14/14 A2967 RMK AO2 LTG DSNT N-E AND SW TSE23 PRESFR SLP051 $

EXPIRED METARs :
  • 202011Z AUTO 09015G22KT 4SM TSRA BR FEW011 OVC034 13/13 A2971 RMK AO2 WSHFT 1958 VIS 1 3/4 RWY12 PRESFR SLP066 $
  • 202006Z AUTO 11016G22KT 2 1/4SM TSRA BR FEW011 BKN031 OVC070 14/13 A2974 RMK AO2 VIS 3/4V3 VIS 3/4 RWY12 PRESFR SLP075 $
  • 201956Z AUTO 14008G21KT 4SM +TSRA BR SCT010 BKN021 BKN070 OVC090 18/16 A2978 RMK AO2 PK WND 18046/52 RAB49 TSB37 CIG 010V070 CIG 009 RWY12 PRESFR SLP087 P0058 T01750157 $
  • 201937Z AUTO 01006KT 10SM TS FEW009 BKN090 19/17 A2974 RMK AO2 TSB37 SLP072 $
  • 201916Z AUTO 05008KT 10SM FEW007 SCT022 SCT030 19/18 A2972 RMK AO2 SLP065 $
  • 201906Z AUTO 05007KT 10SM SCT007 BKN018 BKN024 OVC030 19/18 A2973 RMK AO2 CIG 016V022 SLP069 $
  • 201856Z AUTO 06008KT 10SM BKN016 BKN022 OVC030 19/18 A2973 RMK AO2 BKN016 V OVC CIG 015 RWY12 SLP069 T01870182 $
  • 201845Z AUTO 03006KT 10SM FEW008 OVC016 19/18 A2973 RMK AO2 LTG DSNT NW CIG 013 RWY12 SLP069 $
  • 201820Z AUTO 33009KT 10SM BKN005 OVC012 19/19 A2974 RMK AO2 SLP073 $
  • 201806Z AUTO 24005KT 10SM BKN006 OVC014 19/19 A2975 RMK AO2 CIG 006V013 BKN V SCT SLP077 $

TAF AMD TAF KMIB
Valid from the 20 at 19:00 until the 21 at 23:00 UTC


201953Z 2019/2123 34010G20KT 0400 +TSRAGS OVC005 BKN020CB OVC040 QNH2970INS
BECMG 2021/2022 34009KT 6000 -SHRA BKN015 OVC030 QNH2964INS
BECMG 2101/2102 31012KT 9999 NSW SCT010 BKN020 OVC030 QNH2967INS
BECMG 2112/2113 31010G15KT 8000 -SHRA BR SCT010 OVC020 QNH2973INS
TEMPO 2115/2116 27015G25KT 4800 -TSRA SCT010CB OVC020
BECMG 2119/2120 33012KT 9999 NSW BKN030 QNH2984INS TX19/2023Z TN14/2112Z
No reported NOTAMs for that airfield.



MET'MAP, your aeronautical weather chart ! - Copyright ORBIFLY December 2007 - Disclaimer

ORBIFLY MET'MAP TEAM :

Programming & Development : Alexandra Zaïnal
Concept & Development : Baudouin d'Aumeries
Co-Development & Prog : Marc-Olivier Méhu
Technical & hardware support : Manuel Goepfert

Contact : metmap@orbifly.com




SOURCES & CREDITS :

   NOAA       Earth
Advisory